Camden Point, Missouri
Current Conditions -  °F | °C
As of 7:28 AM on Thursday 18 Dec 2014 (Local Time) from KMCI Reporting Station
Light Snow Light Snow  
Wind Chill: 20°   Ceiling: 2900
Heat Index: 28°   Visibility: 2mi
Dew Point: 26°   Wind: 8mph
Humidity: 92%   Direction: 80°E
Pressure: 30.21"   Gusts: NA
Location:  39.45°N, 94.74°W
Report Text: KMCI 181328Z 08007KT 2SM -SN BR SCT006 BKN029 OVC035 M02/M03 A3021 RMK AO2 SFC VIS 2 1/2 P0001 T10221033
Loading
Personal Weather Stations






























Interactive Weather Map New forecast layout! Learn more

10-Day Weather Forecast

Advertisements
Track Severe Weather on mobile